createdAt,value
2018-12-31T17:29:27.596Z,100290.35
2018-12-31T17:31:57.420Z,100295.29
2018-12-31T17:34:27.021Z,100297.70
2018-12-31T17:36:56.639Z,100300.11
2018-12-31T17:39:26.235Z,100301.37
2018-12-31T17:41:55.855Z,100300.16
2018-12-31T17:44:25.461Z,100303.17
2018-12-31T17:46:55.079Z,100299.88
2018-12-31T17:49:24.663Z,100299.06
2018-12-31T17:51:55.887Z,100303.66
2018-12-31T17:54:25.205Z,100310.03
2018-12-31T17:56:54.927Z,100306.49
2018-12-31T17:59:24.520Z,100311.66
2018-12-31T18:01:54.143Z,100313.95
2018-12-31T18:04:23.737Z,100315.08
2018-12-31T18:06:53.292Z,100312.36
2018-12-31T18:09:22.849Z,100315.20
2018-12-31T18:11:52.461Z,100311.02
2018-12-31T18:14:22.060Z,100311.13
2018-12-31T18:16:51.783Z,100313.53
2018-12-31T18:19:21.782Z,100313.34
2018-12-31T18:21:51.601Z,100313.80
2018-12-31T18:24:21.217Z,100308.16
2018-12-31T18:26:52.987Z,100304.86
2018-12-31T18:29:22.584Z,100314.59
2018-12-31T18:31:52.499Z,100315.63
2018-12-31T18:34:22.401Z,100316.70
2018-12-31T18:36:52.145Z,100320.52
2018-12-31T18:39:21.415Z,100325.98
2018-12-31T18:41:50.999Z,100326.22
2018-12-31T18:44:20.260Z,100323.84
2018-12-31T18:46:49.522Z,100327.05
2018-12-31T18:49:19.113Z,100319.65
2018-12-31T18:51:49.050Z,100329.94
2018-12-31T18:54:18.647Z,100335.34
2018-12-31T18:56:47.900Z,100336.66
2018-12-31T18:59:17.458Z,100335.34
2018-12-31T19:01:47.063Z,100331.34
2018-12-31T19:04:16.650Z,100331.83
2018-12-31T19:06:45.928Z,100341.03
2018-12-31T19:09:15.463Z,100347.95
2018-12-31T19:11:45.101Z,100343.32
2018-12-31T19:14:14.707Z,100338.34
2018-12-31T19:16:44.228Z,100344.78
2018-12-31T19:19:13.780Z,100351.36
2018-12-31T19:21:43.395Z,100351.61
2018-12-31T19:24:14.188Z,100348.87
2018-12-31T19:26:43.499Z,100352.23
2018-12-31T19:29:13.037Z,100358.33
2018-12-31T19:31:44.261Z,100365.05
2018-12-31T19:34:13.959Z,100368.02
2018-12-31T19:36:43.506Z,100366.98
2018-12-31T19:39:12.856Z,100365.67
2018-12-31T19:41:42.533Z,100360.75
2018-12-31T19:44:12.149Z,100359.30
2018-12-31T19:46:41.698Z,100360.75
2018-12-31T19:49:11.328Z,100356.27
2018-12-31T19:51:40.856Z,100355.92
2018-12-31T19:54:10.451Z,100351.00
2018-12-31T19:56:40.082Z,100345.89
2018-12-31T19:59:09.600Z,100338.20
2018-12-31T20:01:39.164Z,100332.45
2018-12-31T20:04:08.783Z,100324.36
2018-12-31T20:06:38.318Z,100317.55
2018-12-31T20:09:07.959Z,100321.50
2018-12-31T20:11:37.453Z,100318.04
2018-12-31T20:14:07.202Z,100317.89
2018-12-31T20:16:36.802Z,100317.55
2018-12-31T20:19:06.124Z,100316.03
2018-12-31T20:21:36.116Z,100311.13
2018-12-31T20:24:05.742Z,100313.61
2018-12-31T20:26:35.332Z,100311.33
2018-12-31T20:29:04.940Z,100308.00
2018-12-31T20:31:34.542Z,100311.95
2018-12-31T20:34:04.153Z,100315.41
2018-12-31T20:36:33.766Z,100311.95
2018-12-31T20:39:03.093Z,100308.69
2018-12-31T20:41:32.671Z,100310.49
2018-12-31T20:44:02.286Z,100313.95
2018-12-31T20:46:31.892Z,100307.03
2018-12-31T20:49:01.503Z,100309.81
2018-12-31T20:51:31.197Z,100306.69
2018-12-31T20:54:00.804Z,100308.48
2018-12-31T20:56:30.432Z,100305.17
2018-12-31T20:59:00.032Z,100305.52
2018-12-31T21:01:29.576Z,100301.92
2018-12-31T21:03:59.133Z,100307.38
2018-12-31T21:06:28.759Z,100295.48
2018-12-31T21:08:58.008Z,100301.72
2018-12-31T21:11:27.559Z,100298.26
2018-12-31T21:13:57.470Z,100299.23
2018-12-31T21:16:27.070Z,100297.28
2018-12-31T21:18:56.682Z,100286.28
2018-12-31T21:21:26.192Z,100288.57
2018-12-31T21:23:55.783Z,100283.25
2018-12-31T21:26:25.498Z,100287.05
2018-12-31T21:28:55.112Z,100294.31
2018-12-31T21:31:24.719Z,100286.77
2018-12-31T21:33:54.322Z,100289.73
2018-12-31T21:36:23.944Z,100293.83
2018-12-31T21:38:53.842Z,100293.34
2018-12-31T21:41:23.469Z,100296.45
2018-12-31T21:43:52.795Z,100294.03
2018-12-31T21:46:22.062Z,100290.57
2018-12-31T21:48:51.725Z,100283.66
2018-12-31T21:51:21.690Z,100292.86
2018-12-31T21:53:51.297Z,100295.97
2018-12-31T21:56:21.007Z,100299.77
2018-12-31T21:58:51.889Z,100295.34
2018-12-31T22:01:21.543Z,100293.69
2018-12-31T22:03:51.368Z,100291.40
2018-12-31T22:06:22.258Z,100284.97
2018-12-31T22:08:51.893Z,100285.80
2018-12-31T22:11:21.515Z,100292.03
2018-12-31T22:13:51.099Z,100285.94
2018-12-31T22:16:20.422Z,100287.25
2018-12-31T22:18:50.040Z,100280.14
2018-12-31T22:21:19.611Z,100281.80
2018-12-31T22:23:49.232Z,100290.17
2018-12-31T22:26:18.850Z,100291.00
2018-12-31T22:28:48.437Z,100285.59
2018-12-31T22:31:18.041Z,100280.19
2018-12-31T22:33:47.653Z,100279.02
2018-12-31T22:36:16.990Z,100285.11
2018-12-31T22:38:46.281Z,100281.66
2018-12-31T22:41:15.489Z,100283.94
2018-12-31T22:43:44.996Z,100290.71
2018-12-31T22:46:14.589Z,100286.77
2018-12-31T22:48:44.170Z,100288.08
2018-12-31T22:51:13.882Z,100290.52
2018-12-31T22:53:43.536Z,100286.08
2018-12-31T22:56:12.777Z,100287.59
2018-12-31T22:58:42.384Z,100284.63
2018-12-31T23:01:11.703Z,100285.94
2018-12-31T23:03:41.293Z,100286.42
2018-12-31T23:06:10.709Z,100285.66
2018-12-31T23:08:40.408Z,100290.17
2018-12-31T23:11:09.713Z,100280.34
2018-12-31T23:13:39.324Z,100282.34
2018-12-31T23:16:08.592Z,100278.54
2018-12-31T23:18:38.242Z,100278.54
2018-12-31T23:21:07.812Z,100281.17
2018-12-31T23:23:37.082Z,100278.34
2018-12-31T23:26:06.762Z,100277.14
2018-12-31T23:28:36.360Z,100277.63
2018-12-31T23:31:06.073Z,100278.25
2018-12-31T23:33:35.704Z,100271.97
2018-12-31T23:36:05.265Z,100272.45
2018-12-31T23:38:34.889Z,100272.65
2018-12-31T23:41:04.607Z,100271.13
2018-12-31T23:43:34.196Z,100271.48
2018-12-31T23:46:03.799Z,100266.98
2018-12-31T23:48:33.415Z,100265.33
2018-12-31T23:51:03.011Z,100268.84
2018-12-31T23:53:33.025Z,100269.53
2018-12-31T23:56:02.664Z,100256.04
2018-12-31T23:58:32.249Z,100261.50
